createdAt,value
2023-01-28T00:01:12.603Z,5.20
2023-01-28T00:03:40.023Z,5.20
2023-01-28T00:06:08.161Z,5.20
2023-01-28T00:08:35.039Z,5.20
2023-01-28T00:11:02.383Z,5.20
2023-01-28T00:13:29.568Z,5.20
2023-01-28T00:16:00.934Z,5.10
2023-01-28T00:18:30.317Z,5.10
2023-01-28T00:21:01.122Z,5.10
2023-01-28T00:23:28.438Z,5.10
2023-01-28T00:25:55.144Z,5.10
2023-01-28T00:28:24.480Z,5.10
2023-01-28T00:30:52.368Z,5.10
2023-01-28T00:33:19.701Z,5.10
2023-01-28T00:35:46.951Z,5.10
2023-01-28T00:38:13.802Z,5.20
2023-01-28T00:40:40.509Z,5.10
2023-01-28T00:43:07.271Z,5.00
2023-01-28T00:45:34.017Z,5.00
2023-01-28T00:48:00.672Z,5.00
2023-01-28T00:50:27.327Z,5.00
2023-01-28T00:52:56.340Z,5.00
2023-01-28T00:55:24.615Z,5.00
2023-01-28T00:57:51.422Z,5.50
2023-01-28T01:00:20.274Z,5.00
2023-01-28T01:02:50.387Z,5.00
2023-01-28T01:05:17.440Z,5.00
2023-01-28T01:07:44.252Z,5.10
2023-01-28T01:10:12.225Z,5.10
2023-01-28T01:12:39.392Z,5.00
2023-01-28T01:15:10.377Z,5.00
2023-01-28T01:17:39.156Z,5.00
2023-01-28T01:20:08.268Z,5.00
2023-01-28T01:22:35.841Z,4.90
2023-01-28T01:25:04.264Z,4.90
2023-01-28T01:27:33.889Z,4.90
2023-01-28T01:30:00.515Z,4.90
2023-01-28T01:32:31.206Z,5.00
2023-01-28T01:34:58.086Z,4.90
2023-01-28T01:37:25.623Z,4.90
2023-01-28T01:39:54.728Z,4.90
2023-01-28T01:42:22.517Z,4.90
2023-01-28T01:44:58.193Z,4.90
2023-01-28T01:47:34.413Z,4.90
2023-01-28T01:50:05.685Z,4.90
2023-01-28T01:52:34.946Z,4.90
2023-01-28T01:55:03.115Z,4.90
2023-01-28T01:57:32.105Z,4.90
2023-01-28T02:00:06.013Z,4.90
2023-01-28T02:02:41.880Z,4.90
2023-01-28T02:05:10.811Z,4.90
2023-01-28T02:07:38.549Z,4.90
2023-01-28T02:10:05.933Z,4.90
2023-01-28T02:12:35.357Z,4.80
2023-01-28T02:15:01.963Z,4.80
2023-01-28T02:17:29.023Z,4.80
2023-01-28T02:20:00.585Z,4.80
2023-01-28T02:22:28.251Z,4.80
2023-01-28T02:24:58.091Z,4.80
2023-01-28T02:27:34.796Z,4.80
2023-01-28T02:30:02.492Z,4.80
2023-01-28T02:32:39.467Z,4.80
2023-01-28T02:35:15.850Z,4.80
2023-01-28T02:37:55.284Z,4.80
2023-01-28T02:40:29.694Z,4.80
2023-01-28T02:42:57.357Z,4.80
2023-01-28T02:45:25.401Z,4.80
2023-01-28T02:48:00.027Z,4.80
2023-01-28T02:50:43.988Z,4.80
2023-01-28T02:53:38.700Z,4.80
2023-01-28T02:56:08.169Z,4.70
2023-01-28T02:58:47.057Z,4.70
2023-01-28T03:01:26.456Z,4.70
2023-01-28T03:04:02.144Z,4.70
2023-01-28T03:06:32.890Z,4.70
2023-01-28T03:09:19.796Z,4.70
2023-01-28T03:12:06.899Z,4.70
2023-01-28T03:14:54.066Z,4.70
2023-01-28T03:17:58.531Z,4.60
2023-01-28T03:20:45.340Z,4.60
2023-01-28T03:23:32.589Z,4.60
2023-01-28T03:26:20.290Z,4.60
2023-01-28T03:29:06.941Z,4.50
2023-01-28T03:31:53.636Z,4.50
2023-01-28T03:34:40.628Z,4.50
2023-01-28T03:37:08.846Z,4.50
2023-01-28T03:39:35.598Z,4.50
2023-01-28T03:42:06.485Z,4.60
2023-01-28T03:44:52.711Z,4.60
2023-01-28T03:47:29.551Z,4.50
2023-01-28T03:49:57.548Z,4.60
2023-01-28T03:52:25.885Z,4.60
2023-01-28T03:54:56.204Z,4.60
2023-01-28T03:57:24.777Z,4.60
2023-01-28T03:59:53.170Z,4.70
2023-01-28T04:02:21.403Z,4.60
2023-01-28T04:04:50.287Z,4.60
2023-01-28T04:07:18.018Z,4.60
2023-01-28T04:10:03.302Z,4.60
2023-01-28T04:12:49.723Z,4.60
2023-01-28T04:15:18.311Z,4.60
2023-01-28T04:17:47.641Z,4.60
2023-01-28T04:20:25.649Z,4.60
2023-01-28T04:22:52.333Z,4.60
2023-01-28T04:25:21.135Z,4.60
2023-01-28T04:27:48.305Z,4.60
2023-01-28T04:30:21.743Z,4.50
2023-01-28T04:33:02.339Z,4.60
2023-01-28T04:35:39.565Z,4.50
2023-01-28T04:38:10.527Z,4.60
2023-01-28T04:40:53.220Z,4.50
2023-01-28T04:43:34.002Z,4.50
2023-01-28T04:46:19.150Z,4.50
2023-01-28T04:49:24.180Z,4.50
2023-01-28T04:51:53.960Z,4.50
2023-01-28T04:54:33.111Z,4.50
2023-01-28T04:57:02.838Z,4.50
2023-01-28T04:59:31.090Z,4.50
2023-01-28T05:01:57.982Z,4.40
2023-01-28T05:04:24.944Z,4.50
2023-01-28T05:06:52.615Z,4.40
2023-01-28T05:09:24.340Z,4.40
2023-01-28T05:11:54.049Z,4.40
2023-01-28T05:14:20.838Z,4.40
2023-01-28T05:17:05.411Z,4.40
2023-01-28T05:19:32.743Z,4.40
2023-01-28T05:22:00.128Z,4.30
2023-01-28T05:24:39.410Z,4.40
2023-01-28T05:27:07.493Z,4.40
2023-01-28T05:29:36.763Z,4.30
2023-01-28T05:32:03.606Z,4.30
2023-01-28T05:34:31.415Z,4.30
2023-01-28T05:37:01.533Z,4.30
2023-01-28T05:39:31.813Z,4.30
2023-01-28T05:41:59.151Z,4.30
2023-01-28T05:44:26.205Z,4.30
2023-01-28T05:47:21.852Z,4.30
2023-01-28T05:49:58.961Z,4.20
2023-01-28T05:52:43.624Z,4.20
2023-01-28T05:55:20.830Z,4.10
2023-01-28T05:57:48.309Z,4.10
2023-01-28T06:00:17.292Z,4.20
2023-01-28T06:02:45.564Z,4.10
2023-01-28T06:05:15.001Z,4.10
2023-01-28T06:07:44.395Z,4.10
2023-01-28T06:10:12.947Z,4.10
2023-01-28T06:12:40.187Z,4.10
2023-01-28T06:15:26.773Z,4.10
2023-01-28T06:18:03.339Z,4.10
2023-01-28T06:20:33.554Z,4.10
2023-01-28T06:23:01.212Z,4.00
2023-01-28T06:25:29.159Z,4.00
2023-01-28T06:28:00.074Z,4.10
2023-01-28T06:30:29.136Z,4.00
2023-01-28T06:32:58.156Z,4.00
2023-01-28T06:35:25.995Z,4.00
2023-01-28T06:37:53.073Z,3.90
2023-01-28T06:40:20.035Z,3.90
2023-01-28T06:42:46.747Z,3.90
2023-01-28T06:45:13.469Z,3.90
2023-01-28T06:47:40.335Z,3.90
2023-01-28T06:50:07.392Z,3.90
2023-01-28T06:52:34.062Z,3.90
2023-01-28T06:55:01.555Z,4.00
2023-01-28T06:57:31.345Z,4.00
2023-01-28T06:59:58.059Z,4.00
2023-01-28T07:02:27.501Z,4.00
2023-01-28T07:04:54.384Z,4.00
2023-01-28T07:07:22.354Z,4.00
2023-01-28T07:09:49.027Z,4.00
2023-01-28T07:12:15.696Z,4.00
2023-01-28T07:14:42.451Z,3.90
2023-01-28T07:17:09.189Z,3.90
2023-01-28T07:19:35.898Z,3.80
2023-01-28T07:22:03.554Z,3.80
2023-01-28T07:24:34.014Z,3.80
2023-01-28T07:27:04.499Z,3.80
2023-01-28T07:29:31.291Z,3.80
2023-01-28T07:31:58.020Z,3.80
2023-01-28T07:34:26.875Z,3.90
2023-01-28T07:36:53.807Z,3.80
2023-01-28T07:39:21.161Z,3.80
2023-01-28T07:41:47.787Z,3.80
2023-01-28T07:44:35.690Z,3.80
2023-01-28T07:47:02.747Z,3.70
2023-01-28T07:49:29.568Z,3.70
2023-01-28T07:51:56.442Z,3.70
2023-01-28T07:54:24.047Z,3.80
2023-01-28T07:56:51.760Z,3.80
2023-01-28T07:59:18.719Z,3.80
2023-01-28T08:01:45.483Z,3.90
2023-01-28T08:04:13.299Z,3.90
2023-01-28T08:06:40.110Z,4.10
2023-01-28T08:09:08.164Z,4.00
2023-01-28T08:11:37.665Z,4.00
2023-01-28T08:14:07.156Z,4.00
2023-01-28T08:16:33.804Z,4.00
2023-01-28T08:19:00.521Z,4.00
2023-01-28T08:21:27.171Z,4.00
2023-01-28T08:23:57.743Z,3.90
2023-01-28T08:26:24.430Z,3.90
2023-01-28T08:28:51.705Z,3.90
2023-01-28T08:31:18.608Z,3.90
2023-01-28T08:33:45.438Z,4.00
2023-01-28T08:36:12.246Z,4.00
2023-01-28T08:38:38.843Z,4.00
2023-01-28T08:41:05.524Z,4.00
2023-01-28T08:43:32.170Z,4.00
2023-01-28T08:45:59.882Z,4.00
2023-01-28T08:48:26.668Z,4.00
2023-01-28T08:50:55.745Z,3.90
2023-01-28T08:53:22.510Z,4.00
2023-01-28T08:55:49.236Z,4.00
2023-01-28T08:58:16.910Z,4.00
2023-01-28T09:00:43.801Z,4.00
2023-01-28T09:03:10.523Z,4.10
2023-01-28T09:05:37.727Z,4.10
2023-01-28T09:08:05.762Z,4.20
2023-01-28T09:10:32.525Z,4.20
2023-01-28T09:12:59.321Z,4.10
2023-01-28T09:15:26.074Z,4.10
2023-01-28T09:17:57.183Z,4.20
2023-01-28T09:20:23.936Z,4.20
2023-01-28T09:22:50.682Z,4.20
2023-01-28T09:25:17.379Z,4.30
2023-01-28T09:27:44.050Z,4.30
2023-01-28T09:30:10.848Z,4.30
2023-01-28T09:32:37.506Z,4.40
2023-01-28T09:35:04.349Z,4.40
2023-01-28T09:37:31.122Z,4.50
2023-01-28T09:40:03.116Z,4.50
2023-01-28T09:42:32.842Z,4.50
2023-01-28T09:45:13.149Z,4.40
2023-01-28T09:47:39.759Z,4.40
2023-01-28T09:50:14.556Z,4.10
2023-01-28T09:52:42.104Z,4.30
2023-01-28T09:55:20.337Z,4.30
2023-01-28T09:57:53.142Z,4.30
2023-01-28T10:00:26.050Z,4.30
2023-01-28T10:03:01.195Z,4.30
2023-01-28T10:05:35.314Z,4.30
2023-01-28T10:08:11.462Z,4.30
2023-01-28T10:10:38.242Z,4.30
2023-01-28T10:13:11.008Z,4.40
2023-01-28T10:15:56.790Z,4.50
2023-01-28T10:18:30.691Z,4.80
2023-01-28T10:21:18.918Z,4.90
2023-01-28T10:24:04.751Z,5.00
2023-01-28T10:26:36.628Z,5.10
2023-01-28T10:29:09.480Z,5.10
2023-01-28T10:31:40.189Z,5.10
2023-01-28T10:34:09.759Z,5.10
2023-01-28T10:36:42.886Z,5.10
2023-01-28T10:39:12.321Z,5.10
2023-01-28T10:41:52.001Z,5.30
2023-01-28T10:44:26.585Z,5.10
2023-01-28T10:46:53.987Z,5.10
2023-01-28T10:49:29.957Z,5.00
2023-01-28T10:51:57.096Z,5.00
2023-01-28T10:54:25.059Z,4.80
2023-01-28T10:57:04.646Z,4.80
2023-01-28T10:59:33.005Z,4.80
2023-01-28T11:02:03.533Z,4.90
2023-01-28T11:04:31.527Z,4.90
2023-01-28T11:07:21.009Z,5.00
2023-01-28T11:09:49.295Z,5.00
2023-01-28T11:12:25.937Z,4.90
2023-01-28T11:14:54.040Z,4.80
2023-01-28T11:17:24.990Z,4.60
2023-01-28T11:19:53.729Z,4.60
2023-01-28T11:22:40.877Z,4.60
2023-01-28T11:25:18.008Z,4.70
2023-01-28T11:27:48.752Z,4.80
2023-01-28T11:30:21.358Z,4.80
2023-01-28T11:32:54.485Z,5.00
2023-01-28T11:35:32.967Z,5.30
2023-01-28T11:38:02.966Z,5.50
2023-01-28T11:40:29.652Z,5.60
2023-01-28T11:43:00.273Z,5.40
2023-01-28T11:45:34.429Z,5.40
2023-01-28T11:48:30.829Z,5.60
2023-01-28T11:51:06.236Z,5.80
2023-01-28T11:53:40.516Z,6.20
2023-01-28T11:56:27.135Z,6.40
2023-01-28T11:59:20.151Z,5.90
2023-01-28T12:01:52.200Z,6.10
2023-01-28T12:04:41.753Z,6.20
2023-01-28T12:07:14.662Z,6.30
2023-01-28T12:09:55.048Z,6.30
2023-01-28T12:12:36.793Z,6.40
2023-01-28T12:15:22.284Z,6.30
2023-01-28T12:18:07.832Z,6.30
2023-01-28T12:20:58.867Z,6.20
2023-01-28T12:23:37.827Z,6.20
2023-01-28T12:26:08.296Z,6.20
2023-01-28T12:28:44.684Z,6.30
2023-01-28T12:31:21.011Z,6.20
2023-01-28T12:34:02.375Z,6.40
2023-01-28T12:36:47.937Z,6.50
2023-01-28T12:39:33.306Z,6.60
2023-01-28T12:42:23.167Z,6.70
2023-01-28T12:44:52.268Z,6.70
2023-01-28T12:47:33.935Z,6.70
2023-01-28T12:50:03.879Z,6.80
2023-01-28T12:52:33.275Z,6.70
2023-01-28T12:55:04.469Z,6.60
2023-01-28T12:57:34.627Z,6.30
2023-01-28T13:00:16.999Z,6.20
2023-01-28T13:02:47.904Z,6.40
2023-01-28T13:05:16.207Z,6.50
2023-01-28T13:07:48.355Z,6.70
2023-01-28T13:10:21.105Z,6.90
2023-01-28T13:12:48.302Z,7.00
2023-01-28T13:15:16.593Z,7.00
2023-01-28T13:18:03.592Z,6.60
2023-01-28T13:20:49.865Z,6.40
2023-01-28T13:23:39.818Z,6.50
2023-01-28T13:26:18.791Z,6.70
2023-01-28T13:28:46.366Z,6.80
2023-01-28T13:31:20.086Z,6.80
2023-01-28T13:33:48.325Z,6.80
2023-01-28T13:36:18.056Z,6.70
2023-01-28T13:38:45.405Z,6.50
2023-01-28T13:41:12.087Z,6.40
2023-01-28T13:43:42.540Z,6.20
2023-01-28T13:46:10.973Z,6.00
2023-01-28T13:48:51.062Z,5.90
2023-01-28T13:51:31.492Z,5.80
2023-01-28T13:54:00.983Z,5.70
2023-01-28T13:56:45.671Z,5.80
2023-01-28T13:59:24.320Z,5.90
2023-01-28T14:02:10.715Z,5.90
2023-01-28T14:04:51.579Z,5.90
2023-01-28T14:07:21.366Z,5.80
2023-01-28T14:09:54.589Z,5.70
2023-01-28T14:12:42.905Z,5.60
2023-01-28T14:15:10.566Z,5.70
2023-01-28T14:17:46.439Z,6.00
2023-01-28T14:20:22.307Z,6.40
2023-01-28T14:22:49.866Z,7.00
2023-01-28T14:25:20.849Z,7.60
2023-01-28T14:27:50.993Z,8.00
2023-01-28T14:30:28.639Z,8.30
2023-01-28T14:32:55.725Z,8.50
2023-01-28T14:35:27.246Z,8.60
2023-01-28T14:37:54.544Z,8.60
2023-01-28T14:40:21.315Z,8.50
2023-01-28T14:42:50.084Z,8.40
2023-01-28T14:45:29.318Z,8.50
2023-01-28T14:48:14.732Z,8.70
2023-01-28T14:50:56.635Z,8.70
2023-01-28T14:53:36.533Z,8.60
2023-01-28T14:56:03.076Z,7.90
2023-01-28T14:58:31.565Z,7.30
2023-01-28T15:00:59.276Z,6.80
2023-01-28T15:03:27.013Z,6.30
2023-01-28T15:06:03.907Z,6.20
2023-01-28T15:08:32.217Z,6.10
2023-01-28T15:11:02.567Z,5.90
2023-01-28T15:13:32.388Z,5.80
2023-01-28T15:16:00.834Z,5.70
2023-01-28T15:18:32.173Z,5.70
2023-01-28T15:20:59.489Z,5.60
2023-01-28T15:23:27.855Z,5.50
2023-01-28T15:25:56.972Z,5.40
2023-01-28T15:28:29.583Z,5.30
2023-01-28T15:30:59.591Z,5.30
2023-01-28T15:33:26.667Z,5.20
2023-01-28T15:35:54.484Z,5.20
2023-01-28T15:38:22.021Z,5.10
2023-01-28T15:40:55.674Z,5.00
2023-01-28T15:43:25.196Z,5.00
2023-01-28T15:45:55.990Z,5.00
2023-01-28T15:48:27.025Z,5.00
2023-01-28T15:51:01.365Z,4.90
2023-01-28T15:53:30.636Z,4.90
2023-01-28T15:56:10.447Z,4.90
2023-01-28T15:58:41.235Z,4.90
2023-01-28T16:01:10.170Z,5.00
2023-01-28T16:03:39.842Z,5.00
2023-01-28T16:06:11.112Z,4.90
2023-01-28T16:08:45.511Z,4.80
2023-01-28T16:11:12.551Z,4.80
2023-01-28T16:13:45.025Z,4.70
2023-01-28T16:16:12.065Z,4.50
2023-01-28T16:18:52.466Z,4.50
2023-01-28T16:21:21.005Z,4.50
2023-01-28T16:23:51.852Z,4.40
2023-01-28T16:26:25.599Z,4.40
2023-01-28T16:28:52.268Z,4.30
2023-01-28T16:31:19.307Z,4.20
2023-01-28T16:33:49.660Z,4.10
2023-01-28T16:36:19.530Z,4.00
2023-01-28T16:38:46.427Z,4.00
2023-01-28T16:41:36.943Z,4.00
2023-01-28T16:44:05.739Z,3.90
2023-01-28T16:46:35.529Z,3.90
2023-01-28T16:49:02.701Z,3.90
2023-01-28T16:51:31.879Z,3.90
2023-01-28T16:53:58.829Z,3.80
2023-01-28T16:56:44.565Z,3.90
2023-01-28T16:59:13.636Z,3.90
2023-01-28T17:01:42.720Z,4.00
2023-01-28T17:04:12.771Z,4.10
2023-01-28T17:06:44.288Z,4.20
2023-01-28T17:09:11.958Z,4.30
2023-01-28T17:11:40.546Z,4.40
2023-01-28T17:14:10.114Z,4.40
2023-01-28T17:16:37.484Z,4.40
2023-01-28T17:19:04.393Z,4.40
2023-01-28T17:21:31.165Z,4.40
2023-01-28T17:23:59.325Z,4.40
2023-01-28T17:26:26.163Z,4.50
2023-01-28T17:28:53.463Z,4.60
2023-01-28T17:31:20.767Z,4.60
2023-01-28T17:33:47.682Z,4.60
2023-01-28T17:36:14.321Z,4.60
2023-01-28T17:38:44.051Z,4.70
2023-01-28T17:41:11.731Z,4.70
2023-01-28T17:43:38.428Z,4.70
2023-01-28T17:46:11.398Z,4.80
2023-01-28T17:48:38.263Z,4.80
2023-01-28T17:51:05.014Z,4.80
2023-01-28T17:53:32.817Z,4.70
2023-01-28T17:55:59.511Z,4.70
2023-01-28T17:58:26.158Z,4.60
2023-01-28T18:00:55.163Z,4.60
2023-01-28T18:03:21.877Z,4.50
2023-01-28T18:05:58.717Z,4.50
2023-01-28T18:08:28.326Z,4.50
2023-01-28T18:10:55.495Z,4.80
2023-01-28T18:13:22.203Z,4.50
2023-01-28T18:15:48.911Z,4.50
2023-01-28T18:18:15.603Z,4.50
2023-01-28T18:20:42.260Z,4.40
2023-01-28T18:23:08.958Z,4.40
2023-01-28T18:25:35.977Z,4.30
2023-01-28T18:28:03.800Z,4.20
2023-01-28T18:30:30.456Z,4.20
2023-01-28T18:32:57.078Z,4.10
2023-01-28T18:35:25.019Z,4.10
2023-01-28T18:37:54.427Z,4.00
2023-01-28T18:40:22.058Z,3.80
2023-01-28T18:42:48.739Z,3.70
2023-01-28T18:45:18.156Z,3.60
2023-01-28T18:47:44.946Z,3.60
2023-01-28T18:50:11.726Z,3.50
2023-01-28T18:52:38.484Z,3.50
2023-01-28T18:55:06.973Z,3.50
2023-01-28T18:57:33.570Z,3.40
2023-01-28T19:00:00.245Z,3.40
2023-01-28T19:02:28.034Z,3.30
2023-01-28T19:04:57.652Z,3.20
2023-01-28T19:07:24.263Z,3.20
2023-01-28T19:09:50.869Z,3.20
2023-01-28T19:12:17.454Z,3.20
2023-01-28T19:14:44.321Z,3.20
2023-01-28T19:17:11.420Z,3.20
2023-01-28T19:19:38.102Z,3.40
2023-01-28T19:22:04.818Z,3.10
2023-01-28T19:24:31.809Z,3.10
2023-01-28T19:26:59.232Z,3.10
2023-01-28T19:29:28.615Z,3.10
2023-01-28T19:31:55.409Z,3.10
2023-01-28T19:34:24.656Z,3.10
2023-01-28T19:36:51.585Z,3.00
2023-01-28T19:39:18.390Z,3.00
2023-01-28T19:41:47.766Z,3.00
2023-01-28T19:44:14.504Z,3.00
2023-01-28T19:46:42.733Z,3.00
2023-01-28T19:49:10.574Z,2.90
2023-01-28T19:51:40.427Z,2.90
2023-01-28T19:54:07.235Z,2.90
2023-01-28T19:56:36.036Z,2.80
2023-01-28T19:59:02.870Z,2.80
2023-01-28T20:01:30.681Z,2.80
2023-01-28T20:03:59.153Z,2.80
2023-01-28T20:06:27.536Z,2.80
2023-01-28T20:08:55.917Z,2.80
2023-01-28T20:11:22.961Z,2.80
2023-01-28T20:13:50.383Z,2.60
2023-01-28T20:16:21.526Z,2.70
2023-01-28T20:18:49.770Z,2.70
2023-01-28T20:21:16.385Z,2.70
2023-01-28T20:23:43.061Z,2.80
2023-01-28T20:26:09.713Z,2.70
2023-01-28T20:28:36.382Z,2.70
2023-01-28T20:31:04.468Z,2.70
2023-01-28T20:33:31.702Z,2.60
2023-01-28T20:36:06.339Z,2.60
2023-01-28T20:38:34.715Z,2.70
2023-01-28T20:41:08.577Z,2.60
2023-01-28T20:43:41.013Z,2.60
2023-01-28T20:46:08.887Z,2.60
2023-01-28T20:48:35.684Z,2.60
2023-01-28T20:51:15.335Z,2.60
2023-01-28T20:53:42.555Z,2.60
2023-01-28T20:56:10.050Z,2.60
2023-01-28T20:58:36.856Z,2.60
2023-01-28T21:01:04.135Z,2.50
2023-01-28T21:03:31.437Z,2.60
2023-01-28T21:05:58.225Z,2.50
2023-01-28T21:08:24.936Z,2.50
2023-01-28T21:10:51.676Z,2.50
2023-01-28T21:13:18.387Z,2.70
2023-01-28T21:15:52.482Z,2.50
2023-01-28T21:18:19.532Z,2.50
2023-01-28T21:20:46.322Z,2.50
2023-01-28T21:23:14.827Z,2.50
2023-01-28T21:25:46.921Z,2.40
2023-01-28T21:28:14.079Z,2.40
2023-01-28T21:30:40.946Z,2.40
2023-01-28T21:33:08.034Z,2.40
2023-01-28T21:35:38.421Z,2.40
2023-01-28T21:38:05.776Z,2.10
2023-01-28T21:40:33.200Z,2.30
2023-01-28T21:43:00.963Z,2.40
2023-01-28T21:45:27.981Z,2.30
2023-01-28T21:47:55.333Z,2.30
2023-01-28T21:50:22.474Z,2.30
2023-01-28T21:52:49.551Z,2.30
2023-01-28T21:55:16.505Z,2.20
2023-01-28T21:57:43.185Z,2.20
2023-01-28T22:00:10.088Z,2.20
2023-01-28T22:02:40.185Z,2.20
2023-01-28T22:05:07.581Z,2.30
2023-01-28T22:07:34.559Z,2.30
2023-01-28T22:10:01.414Z,2.30
2023-01-28T22:12:28.289Z,2.40
2023-01-28T22:14:55.170Z,2.30
2023-01-28T22:17:22.017Z,2.30
2023-01-28T22:19:48.762Z,2.30
2023-01-28T22:22:16.488Z,2.30
2023-01-28T22:24:43.323Z,2.30
2023-01-28T22:27:10.502Z,2.40
2023-01-28T22:29:37.242Z,2.30
2023-01-28T22:32:04.901Z,2.20
2023-01-28T22:34:31.912Z,2.20
2023-01-28T22:36:58.744Z,2.30
2023-01-28T22:39:26.577Z,2.30
2023-01-28T22:41:53.242Z,2.20
2023-01-28T22:44:20.154Z,2.20
2023-01-28T22:46:47.329Z,2.20
2023-01-28T22:49:15.069Z,2.10
2023-01-28T22:51:45.327Z,2.10
2023-01-28T22:54:13.577Z,2.20
2023-01-28T22:56:40.320Z,2.20
2023-01-28T22:59:07.794Z,2.10
2023-01-28T23:01:35.752Z,2.10
2023-01-28T23:04:02.512Z,2.10
2023-01-28T23:06:29.965Z,2.10
2023-01-28T23:08:56.720Z,2.00
2023-01-28T23:11:27.417Z,2.00
2023-01-28T23:14:14.123Z,1.90
2023-01-28T23:16:59.881Z,1.90
2023-01-28T23:19:45.510Z,1.90
2023-01-28T23:22:40.398Z,1.90
2023-01-28T23:25:07.250Z,1.90
2023-01-28T23:27:34.588Z,1.80
2023-01-28T23:30:01.431Z,1.80
2023-01-28T23:32:28.296Z,1.80
2023-01-28T23:34:57.246Z,1.90
2023-01-28T23:37:24.409Z,1.80
2023-01-28T23:39:51.280Z,1.80
2023-01-28T23:42:20.911Z,1.80
2023-01-28T23:44:48.228Z,1.80
2023-01-28T23:47:15.016Z,1.70
2023-01-28T23:49:41.782Z,1.70
2023-01-28T23:52:10.177Z,1.70
2023-01-28T23:54:37.241Z,1.70
2023-01-28T23:57:04.548Z,1.60
2023-01-28T23:59:31.234Z,1.70
